createdAt,value
2019-02-11T00:00:36.939Z,79.20
2019-02-11T00:03:07.686Z,79.00
2019-02-11T00:05:36.437Z,79.40
2019-02-11T00:08:04.657Z,79.40
2019-02-11T00:10:32.931Z,79.20
2019-02-11T00:13:01.202Z,79.00
2019-02-11T00:15:29.434Z,78.60
2019-02-11T00:17:57.714Z,78.60
2019-02-11T00:20:25.933Z,78.00
2019-02-11T00:22:54.245Z,78.20
2019-02-11T00:25:22.550Z,77.50
2019-02-11T00:27:50.798Z,77.30
2019-02-11T00:30:19.050Z,77.60
2019-02-11T00:32:47.347Z,76.90
2019-02-11T00:35:15.637Z,76.60
2019-02-11T00:37:43.938Z,76.50
2019-02-11T00:40:12.173Z,76.30
2019-02-11T00:42:40.414Z,76.30
2019-02-11T00:45:09.149Z,76.00
2019-02-11T00:47:37.447Z,75.90
2019-02-11T00:50:10.836Z,76.00
2019-02-11T00:52:39.102Z,76.00
2019-02-11T00:55:07.367Z,75.70
2019-02-11T00:57:35.638Z,75.60
2019-02-11T01:00:05.371Z,75.50
2019-02-11T01:02:33.642Z,75.50
2019-02-11T01:05:02.135Z,75.70
2019-02-11T01:07:30.401Z,75.80
2019-02-11T01:10:04.370Z,76.10
2019-02-11T01:12:32.603Z,76.20
2019-02-11T01:15:00.849Z,76.60
2019-02-11T01:17:29.113Z,77.10
2019-02-11T01:19:57.390Z,77.70
2019-02-11T01:22:25.633Z,78.20
2019-02-11T01:24:53.922Z,79.00
2019-02-11T01:27:22.229Z,79.40
2019-02-11T01:29:50.480Z,79.70
2019-02-11T01:32:18.743Z,80.20
2019-02-11T01:34:47.000Z,80.70
2019-02-11T01:37:15.229Z,81.20
2019-02-11T01:39:43.503Z,81.90
2019-02-11T01:42:11.772Z,82.70
2019-02-11T01:44:59.427Z,83.30
2019-02-11T01:47:27.698Z,83.80
2019-02-11T01:49:55.934Z,84.50
2019-02-11T01:52:24.216Z,85.00
2019-02-11T01:54:52.442Z,85.40
2019-02-11T01:57:20.686Z,86.00
2019-02-11T01:59:48.944Z,86.30
2019-02-11T02:02:17.190Z,86.40
2019-02-11T02:04:45.578Z,87.40
2019-02-11T02:07:13.796Z,87.10
2019-02-11T02:09:42.039Z,87.40
2019-02-11T02:12:10.269Z,87.20
2019-02-11T02:14:38.554Z,87.40
2019-02-11T02:17:06.799Z,87.50
2019-02-11T02:19:35.072Z,87.70
2019-02-11T02:22:03.346Z,87.30
2019-02-11T02:24:31.566Z,87.90
2019-02-11T02:26:59.801Z,88.00
2019-02-11T02:29:28.078Z,88.20
2019-02-11T02:31:56.325Z,88.40
2019-02-11T02:34:24.615Z,88.50
2019-02-11T02:36:52.849Z,88.50
2019-02-11T02:39:21.117Z,88.80
2019-02-11T02:41:49.454Z,89.00
2019-02-11T02:44:17.688Z,90.10
2019-02-11T02:46:46.032Z,89.60
2019-02-11T02:49:14.278Z,90.00
2019-02-11T02:51:42.532Z,90.10
2019-02-11T02:54:10.767Z,90.20
2019-02-11T02:56:39.090Z,90.30
2019-02-11T02:59:26.830Z,90.40
2019-02-11T03:01:55.106Z,90.40
2019-02-11T03:04:23.342Z,90.40
2019-02-11T03:06:51.656Z,90.50
2019-02-11T03:09:19.929Z,90.70
2019-02-11T03:11:48.161Z,90.80
2019-02-11T03:14:16.441Z,91.00
2019-02-11T03:16:44.704Z,91.10
2019-02-11T03:19:13.046Z,91.10
2019-02-11T03:21:41.268Z,91.10
2019-02-11T03:24:09.596Z,91.00
2019-02-11T03:26:37.874Z,90.80
2019-02-11T03:29:06.179Z,90.60
2019-02-11T03:31:34.471Z,91.10
2019-02-11T03:34:02.725Z,90.70
2019-02-11T03:36:31.004Z,90.60
2019-02-11T03:38:59.261Z,90.60
2019-02-11T03:41:27.525Z,90.70
2019-02-11T03:43:57.533Z,90.90
2019-02-11T03:46:25.937Z,90.60
2019-02-11T03:48:54.179Z,90.50
2019-02-11T03:51:22.419Z,90.40
2019-02-11T03:53:50.779Z,90.30
2019-02-11T03:56:19.090Z,89.60
2019-02-11T03:58:47.369Z,89.00
2019-02-11T04:01:15.641Z,88.60
2019-02-11T04:03:43.881Z,88.40
2019-02-11T04:06:13.809Z,88.20
2019-02-11T04:08:42.072Z,88.60
2019-02-11T04:11:10.367Z,88.60
2019-02-11T04:13:38.669Z,88.70
2019-02-11T04:16:07.010Z,88.40
2019-02-11T04:18:35.271Z,88.30
2019-02-11T04:21:03.518Z,88.40
2019-02-11T04:23:31.846Z,89.40
2019-02-11T04:26:00.094Z,88.90
2019-02-11T04:28:28.375Z,88.50
2019-02-11T04:30:56.723Z,88.50
2019-02-11T04:33:24.946Z,88.20
2019-02-11T04:35:53.219Z,88.20
2019-02-11T04:38:21.446Z,88.30
2019-02-11T04:40:49.706Z,88.40
2019-02-11T04:43:17.940Z,88.00
2019-02-11T04:45:46.209Z,87.90
2019-02-11T04:48:14.439Z,87.90
2019-02-11T04:50:42.723Z,87.40
2019-02-11T04:53:30.389Z,87.00
2019-02-11T04:55:58.654Z,87.10
2019-02-11T04:58:26.904Z,87.70
2019-02-11T05:00:55.130Z,88.00
2019-02-11T05:03:23.388Z,88.10
2019-02-11T05:05:51.615Z,88.30
2019-02-11T05:08:19.886Z,88.50
2019-02-11T05:10:48.181Z,88.50
2019-02-11T05:13:20.294Z,88.40
2019-02-11T05:15:48.560Z,88.20
2019-02-11T05:18:17.105Z,88.20
2019-02-11T05:20:45.775Z,88.20
2019-02-11T05:23:14.047Z,88.10
2019-02-11T05:25:42.278Z,87.90
2019-02-11T05:28:10.522Z,87.90
2019-02-11T05:30:43.186Z,87.70
2019-02-11T05:33:11.675Z,87.70
2019-02-11T05:35:40.045Z,87.30
2019-02-11T05:38:08.301Z,87.50
2019-02-11T05:40:36.622Z,87.70
2019-02-11T05:43:04.850Z,88.00
2019-02-11T05:45:33.123Z,88.10
2019-02-11T05:48:01.346Z,88.20
2019-02-11T05:50:29.671Z,88.80
2019-02-11T05:52:57.898Z,88.10
2019-02-11T05:55:26.139Z,88.00
2019-02-11T05:57:54.382Z,87.70
2019-02-11T06:00:22.703Z,87.80
2019-02-11T06:02:50.962Z,87.40
2019-02-11T06:05:38.617Z,87.40
2019-02-11T06:08:06.874Z,87.40
2019-02-11T06:10:35.095Z,87.00
2019-02-11T06:13:03.358Z,87.10
2019-02-11T06:15:31.670Z,86.70
2019-02-11T06:17:59.962Z,87.00
2019-02-11T06:20:28.233Z,86.70
2019-02-11T06:22:56.474Z,86.40
2019-02-11T06:25:24.715Z,86.40
2019-02-11T06:27:53.042Z,86.80
2019-02-11T06:30:21.280Z,86.70
2019-02-11T06:32:49.581Z,86.90
2019-02-11T06:35:18.997Z,86.90
2019-02-11T06:37:47.307Z,86.90
2019-02-11T06:40:15.532Z,86.80
2019-02-11T06:42:43.805Z,87.00
2019-02-11T06:45:13.360Z,87.00
2019-02-11T06:47:41.895Z,87.00
2019-02-11T06:50:12.873Z,87.40
2019-02-11T06:52:41.155Z,87.30
2019-02-11T06:55:11.350Z,87.20
2019-02-11T06:57:39.645Z,87.40
2019-02-11T07:00:13.101Z,87.30
2019-02-11T07:02:41.375Z,87.00
2019-02-11T07:05:09.742Z,87.20
2019-02-11T07:07:38.069Z,88.00
2019-02-11T07:10:13.621Z,87.00
2019-02-11T07:12:41.864Z,86.80
2019-02-11T07:15:21.539Z,86.60
2019-02-11T07:17:44.183Z,86.20
2019-02-11T07:20:12.430Z,85.90
2019-02-11T07:22:40.651Z,85.50
2019-02-11T07:25:09.316Z,84.80
2019-02-11T07:27:37.532Z,84.80
2019-02-11T07:30:26.827Z,84.60
2019-02-11T07:32:55.074Z,84.40
2019-02-11T07:35:23.336Z,84.60
2019-02-11T07:37:51.568Z,84.40
2019-02-11T07:40:20.113Z,83.90
2019-02-11T07:42:50.073Z,83.40
2019-02-11T07:45:19.952Z,83.00
2019-02-11T07:47:48.217Z,82.30
2019-02-11T07:50:16.474Z,82.50
2019-02-11T07:52:44.738Z,81.80
2019-02-11T07:55:12.978Z,81.30
2019-02-11T07:57:41.266Z,80.70
2019-02-11T08:00:10.048Z,80.10
2019-02-11T08:02:38.346Z,79.90
2019-02-11T08:05:06.967Z,80.60
2019-02-11T08:07:35.253Z,79.70
2019-02-11T08:10:05.254Z,79.90
2019-02-11T08:12:33.486Z,80.00
2019-02-11T08:15:03.424Z,79.70
2019-02-11T08:17:31.678Z,79.60
2019-02-11T08:19:59.924Z,79.10
2019-02-11T08:22:28.149Z,78.80
2019-02-11T08:24:56.421Z,78.60
2019-02-11T08:27:24.645Z,78.20
2019-02-11T08:29:52.905Z,77.90
2019-02-11T08:32:40.615Z,78.30
2019-02-11T08:35:08.917Z,78.40
2019-02-11T08:37:37.184Z,78.10
2019-02-11T08:40:07.920Z,78.20
2019-02-11T08:42:36.265Z,77.90
2019-02-11T08:45:06.450Z,77.80
2019-02-11T08:47:34.725Z,77.40
2019-02-11T08:50:03.780Z,77.70
2019-02-11T08:52:32.086Z,77.80
2019-02-11T08:55:00.354Z,78.00
2019-02-11T08:57:28.596Z,78.10
2019-02-11T08:59:56.847Z,78.20
2019-02-11T09:02:25.077Z,78.00
2019-02-11T09:04:53.314Z,78.20
2019-02-11T09:07:21.557Z,78.30
2019-02-11T09:09:49.798Z,78.60
2019-02-11T09:12:18.034Z,78.40
2019-02-11T09:14:46.308Z,78.10
2019-02-11T09:17:14.553Z,77.30
2019-02-11T09:19:42.826Z,77.10
2019-02-11T09:22:11.109Z,76.80
2019-02-11T09:24:39.357Z,76.80
2019-02-11T09:27:07.620Z,76.50
2019-02-11T09:29:35.941Z,76.30
2019-02-11T09:32:04.175Z,76.30
2019-02-11T09:34:32.430Z,76.30
2019-02-11T09:37:00.653Z,76.30
2019-02-11T09:39:28.907Z,75.90
2019-02-11T09:41:57.185Z,76.50
2019-02-11T09:44:29.744Z,76.20
2019-02-11T09:46:55.418Z,75.90
2019-02-11T09:49:23.677Z,75.70
2019-02-11T09:51:52.697Z,75.40
2019-02-11T09:54:20.960Z,74.90
2019-02-11T09:56:49.233Z,74.40
2019-02-11T09:59:17.517Z,74.10
2019-02-11T10:01:45.791Z,73.50
2019-02-11T10:04:14.079Z,73.90
2019-02-11T10:06:42.325Z,73.80
2019-02-11T10:09:10.542Z,73.40
2019-02-11T10:11:38.806Z,73.60
2019-02-11T10:14:07.074Z,74.00
2019-02-11T10:16:35.350Z,74.80
2019-02-11T10:19:03.623Z,74.40
2019-02-11T10:21:31.906Z,74.80
2019-02-11T10:24:00.534Z,74.20
2019-02-11T10:26:28.862Z,73.80
2019-02-11T10:28:57.090Z,74.40
2019-02-11T10:31:25.355Z,73.60
2019-02-11T10:33:53.611Z,72.90
2019-02-11T10:36:23.282Z,72.80
2019-02-11T10:38:51.542Z,72.30
2019-02-11T10:41:19.761Z,71.90
2019-02-11T10:43:48.022Z,72.10
2019-02-11T10:46:20.996Z,72.30
2019-02-11T10:48:46.336Z,71.70
2019-02-11T10:51:14.616Z,71.70
2019-02-11T10:53:42.874Z,71.70
2019-02-11T10:56:11.138Z,71.10
2019-02-11T10:58:39.383Z,70.40
2019-02-11T11:01:07.625Z,70.00
2019-02-11T11:03:35.885Z,69.90
2019-02-11T11:06:04.131Z,69.80
2019-02-11T11:08:32.370Z,69.00
2019-02-11T11:11:00.634Z,68.50
2019-02-11T11:13:28.908Z,68.80
2019-02-11T11:15:57.134Z,68.70
2019-02-11T11:18:25.395Z,68.70
2019-02-11T11:20:53.643Z,68.40
2019-02-11T11:23:21.977Z,68.50
2019-02-11T11:25:50.247Z,68.70
2019-02-11T11:28:18.501Z,69.20
2019-02-11T11:30:46.865Z,69.50
2019-02-11T11:33:15.065Z,68.80
2019-02-11T11:35:43.341Z,68.10
2019-02-11T11:38:11.596Z,67.90
2019-02-11T11:40:39.866Z,67.80
2019-02-11T11:43:08.145Z,67.90
2019-02-11T11:45:36.421Z,67.50
2019-02-11T11:48:04.706Z,67.00
2019-02-11T11:50:32.964Z,67.10
2019-02-11T11:53:01.225Z,67.30
2019-02-11T11:55:29.477Z,67.60
2019-02-11T11:57:57.741Z,67.20
2019-02-11T12:00:31.487Z,67.00
2019-02-11T12:03:03.665Z,67.00
2019-02-11T12:05:29.920Z,67.10
2019-02-11T12:07:58.182Z,67.40
2019-02-11T12:10:26.471Z,67.30
2019-02-11T12:12:54.823Z,66.70
2019-02-11T12:15:27.402Z,66.20
2019-02-11T12:17:55.835Z,66.40
2019-02-11T12:20:24.201Z,66.30
2019-02-11T12:22:52.490Z,65.80
2019-02-11T12:25:20.859Z,65.20
2019-02-11T12:27:49.143Z,65.20
2019-02-11T12:30:22.461Z,65.70
2019-02-11T12:32:54.442Z,65.20
2019-02-11T12:35:20.771Z,65.20
2019-02-11T12:37:49.079Z,65.20
2019-02-11T12:40:17.355Z,64.10
2019-02-11T12:42:45.594Z,63.90
2019-02-11T12:45:22.546Z,63.00
2019-02-11T12:47:50.896Z,63.00
2019-02-11T12:50:19.268Z,62.90
2019-02-11T12:52:47.561Z,62.60
2019-02-11T12:55:16.948Z,62.40
2019-02-11T12:57:45.219Z,62.60
2019-02-11T13:00:23.376Z,62.60
2019-02-11T13:02:51.719Z,62.50
2019-02-11T13:05:22.752Z,62.70
2019-02-11T13:07:50.034Z,60.30
2019-02-11T13:10:39.367Z,60.00
2019-02-11T13:13:07.788Z,59.50
2019-02-11T13:15:58.991Z,59.40
2019-02-11T13:18:06.197Z,59.80
2019-02-11T13:20:34.658Z,60.40
2019-02-11T13:23:03.165Z,60.80
2019-02-11T13:25:31.559Z,60.70
2019-02-11T13:27:59.802Z,60.60
2019-02-11T13:30:28.081Z,59.80
2019-02-11T13:32:56.410Z,59.40
2019-02-11T13:35:24.746Z,58.40
2019-02-11T13:37:55.342Z,58.10
2019-02-11T13:40:23.077Z,57.40
2019-02-11T13:42:51.386Z,57.00
2019-02-11T13:45:20.769Z,57.20
2019-02-11T13:47:55.085Z,57.00
2019-02-11T13:50:22.560Z,57.40
2019-02-11T13:52:51.132Z,58.20
2019-02-11T13:55:19.397Z,58.10
2019-02-11T13:57:47.686Z,58.20
2019-02-11T14:00:20.347Z,58.70
2019-02-11T14:02:53.446Z,59.20
2019-02-11T14:05:21.830Z,59.50
2019-02-11T14:07:50.228Z,60.00
2019-02-11T14:10:18.490Z,60.00
2019-02-11T14:12:47.347Z,59.60
2019-02-11T14:15:20.039Z,59.40
2019-02-11T14:17:45.711Z,59.70
2019-02-11T14:20:21.801Z,59.70
2019-02-11T14:22:50.571Z,59.80
2019-02-11T14:25:39.238Z,60.20
2019-02-11T14:27:48.908Z,60.60
2019-02-11T14:30:22.538Z,61.20
2019-02-11T14:32:51.710Z,62.00
2019-02-11T14:35:20.874Z,62.60
2019-02-11T14:37:49.109Z,63.20
2019-02-11T14:40:17.443Z,63.30
2019-02-11T14:42:45.771Z,63.40
2019-02-11T14:45:35.196Z,63.20
2019-02-11T14:48:03.544Z,62.50
2019-02-11T14:50:32.034Z,61.90
2019-02-11T14:53:00.393Z,61.40
2019-02-11T14:55:28.795Z,61.00
2019-02-11T14:57:57.054Z,61.00
2019-02-11T15:00:25.313Z,61.40
2019-02-11T15:03:12.962Z,61.90
2019-02-11T15:05:41.257Z,61.90
2019-02-11T15:08:09.509Z,61.80
2019-02-11T15:10:37.862Z,61.80
2019-02-11T15:13:06.093Z,62.10
2019-02-11T15:15:34.375Z,62.30
2019-02-11T15:18:02.626Z,62.40
2019-02-11T15:20:30.912Z,62.80
2019-02-11T15:22:59.123Z,62.90
2019-02-11T15:25:27.545Z,63.60
2019-02-11T15:27:55.804Z,63.70
2019-02-11T15:30:25.955Z,64.00
2019-02-11T15:32:54.265Z,64.30
2019-02-11T15:35:22.529Z,64.50
2019-02-11T15:37:50.813Z,64.40
2019-02-11T15:40:21.309Z,64.50
2019-02-11T15:42:49.552Z,64.40
2019-02-11T15:45:17.841Z,63.60
2019-02-11T15:47:46.069Z,63.20
2019-02-11T15:50:16.791Z,62.80
2019-02-11T15:52:45.052Z,62.50
2019-02-11T15:55:15.786Z,62.30
2019-02-11T15:57:44.055Z,62.50
2019-02-11T16:00:14.494Z,62.40
2019-02-11T16:02:42.733Z,62.50
2019-02-11T16:05:16.129Z,62.80
2019-02-11T16:07:41.107Z,63.20
2019-02-11T16:10:37.144Z,63.40
2019-02-11T16:13:05.379Z,63.70
2019-02-11T16:15:35.398Z,66.10
2019-02-11T16:18:03.663Z,67.60
2019-02-11T16:20:31.935Z,68.60
2019-02-11T16:23:01.007Z,69.40
2019-02-11T16:25:29.230Z,69.90
2019-02-11T16:27:58.035Z,70.20
2019-02-11T16:30:26.524Z,70.30
2019-02-11T16:32:54.825Z,70.30
2019-02-11T16:35:23.137Z,70.70
2019-02-11T16:37:51.362Z,71.80
2019-02-11T16:40:25.591Z,72.30
2019-02-11T16:42:53.870Z,73.40
2019-02-11T16:45:22.177Z,74.90
2019-02-11T16:47:50.415Z,76.00
2019-02-11T16:50:18.639Z,76.40
2019-02-11T16:52:46.920Z,77.10
2019-02-11T16:55:15.173Z,77.40
2019-02-11T16:57:44.714Z,78.00
2019-02-11T17:00:19.310Z,78.40
2019-02-11T17:02:47.616Z,78.90
2019-02-11T17:05:15.825Z,79.40
2019-02-11T17:07:44.130Z,79.60
2019-02-11T17:10:15.379Z,79.70
2019-02-11T17:12:43.635Z,80.20
2019-02-11T17:15:15.158Z,80.50
2019-02-11T17:17:43.420Z,80.20
2019-02-11T17:20:13.482Z,80.80
2019-02-11T17:22:41.786Z,81.40
2019-02-11T17:25:11.085Z,81.60
2019-02-11T17:27:39.314Z,82.10
2019-02-11T17:30:22.757Z,82.40
2019-02-11T17:32:51.067Z,82.70
2019-02-11T17:35:19.334Z,83.30
2019-02-11T17:37:47.569Z,83.10
2019-02-11T17:40:15.814Z,82.70
2019-02-11T17:42:44.059Z,83.00
2019-02-11T17:45:15.158Z,82.90
2019-02-11T17:47:43.523Z,83.20
2019-02-11T17:50:11.815Z,83.40
2019-02-11T17:52:40.359Z,83.50
2019-02-11T17:55:10.739Z,83.70
2019-02-11T17:57:39.045Z,84.00
2019-02-11T18:00:12.136Z,84.40
2019-02-11T18:02:40.443Z,85.00
2019-02-11T18:05:08.778Z,85.40
2019-02-11T18:07:37.062Z,86.00
2019-02-11T18:10:24.769Z,86.40
2019-02-11T18:12:53.059Z,86.90
2019-02-11T18:15:22.674Z,87.50
2019-02-11T18:17:50.918Z,88.00
2019-02-11T18:20:19.177Z,88.30
2019-02-11T18:22:47.434Z,88.70
2019-02-11T18:25:15.659Z,89.20
2019-02-11T18:27:43.945Z,89.50
2019-02-11T18:30:16.707Z,90.00
2019-02-11T18:32:45.033Z,90.10
2019-02-11T18:35:20.530Z,90.20
2019-02-11T18:37:49.142Z,89.10
2019-02-11T18:40:17.553Z,87.10
2019-02-11T18:42:45.859Z,84.90
2019-02-11T18:45:15.423Z,83.90
2019-02-11T18:47:51.399Z,83.60
2019-02-11T18:50:19.685Z,82.90
2019-02-11T18:52:47.990Z,82.80
2019-02-11T18:55:22.093Z,82.70
2019-02-11T18:57:50.387Z,82.50
2019-02-11T19:00:19.649Z,82.70
2019-02-11T19:02:48.574Z,83.10
2019-02-11T19:05:16.992Z,82.70
2019-02-11T19:07:45.223Z,82.20
2019-02-11T19:10:15.336Z,81.90
2019-02-11T19:12:43.674Z,81.40
2019-02-11T19:15:15.258Z,81.30
2019-02-11T19:17:43.513Z,81.50
2019-02-11T19:20:13.621Z,81.60
2019-02-11T19:22:42.012Z,81.80
2019-02-11T19:25:29.753Z,82.00
2019-02-11T19:27:58.042Z,82.10
2019-02-11T19:30:27.308Z,82.30
2019-02-11T19:32:55.601Z,82.60
2019-02-11T19:35:23.857Z,82.70
2019-02-11T19:37:52.143Z,83.10
2019-02-11T19:40:20.850Z,83.30
2019-02-11T19:42:55.138Z,83.30
2019-02-11T19:45:24.162Z,83.40
2019-02-11T19:47:52.425Z,83.50
2019-02-11T19:50:20.754Z,84.10
2019-02-11T19:52:49.002Z,84.80
2019-02-11T19:55:17.764Z,85.00
2019-02-11T19:57:46.041Z,85.50
2019-02-11T20:00:18.421Z,85.40
2019-02-11T20:02:46.981Z,85.40
2019-02-11T20:05:15.575Z,85.20
2019-02-11T20:07:46.655Z,85.10
2019-02-11T20:10:23.330Z,84.90
2019-02-11T20:12:51.623Z,85.10
2019-02-11T20:15:28.173Z,85.50
2019-02-11T20:17:56.414Z,86.10
2019-02-11T20:20:26.522Z,86.50
2019-02-11T20:23:02.000Z,86.70
2019-02-11T20:25:30.311Z,86.90
2019-02-11T20:27:58.871Z,87.80
2019-02-11T20:30:31.650Z,87.90
2019-02-11T20:33:00.399Z,88.10
2019-02-11T20:35:28.694Z,87.40
2019-02-11T20:37:58.915Z,87.10
2019-02-11T20:40:29.721Z,87.50
2019-02-11T20:42:58.041Z,87.60
2019-02-11T20:45:28.444Z,87.50
2019-02-11T20:47:56.744Z,87.50
2019-02-11T20:50:25.031Z,87.60
2019-02-11T20:52:53.685Z,87.80
2019-02-11T20:55:22.045Z,88.40
2019-02-11T20:57:53.502Z,88.70
2019-02-11T21:00:23.766Z,89.00
2019-02-11T21:02:52.075Z,89.80
2019-02-11T21:05:20.402Z,89.50
2019-02-11T21:07:48.644Z,89.70
2019-02-11T21:10:18.762Z,90.00
2019-02-11T21:12:47.089Z,90.00
2019-02-11T21:15:35.134Z,90.00
2019-02-11T21:18:03.402Z,90.10
2019-02-11T21:20:43.870Z,90.10
2019-02-11T21:23:13.722Z,90.20
2019-02-11T21:25:42.047Z,90.40
2019-02-11T21:28:10.625Z,90.60
2019-02-11T21:30:39.036Z,90.70
2019-02-11T21:33:08.841Z,90.80
2019-02-11T21:35:37.206Z,90.80
2019-02-11T21:38:05.553Z,91.30
2019-02-11T21:40:33.805Z,91.10
2019-02-11T21:43:02.081Z,91.20
2019-02-11T21:45:30.318Z,91.40
2019-02-11T21:47:58.582Z,91.60
2019-02-11T21:50:27.183Z,91.70
2019-02-11T21:53:14.911Z,91.80
2019-02-11T21:55:43.182Z,91.90
2019-02-11T21:58:11.478Z,91.80
2019-02-11T22:00:39.749Z,91.90
2019-02-11T22:03:08.000Z,92.10
2019-02-11T22:05:36.254Z,92.30
2019-02-11T22:08:04.527Z,92.30
2019-02-11T22:10:32.807Z,92.40
2019-02-11T22:13:01.087Z,92.50
2019-02-11T22:15:29.341Z,92.50
2019-02-11T22:17:57.614Z,92.40
2019-02-11T22:20:25.835Z,92.10
2019-02-11T22:22:54.101Z,91.70
2019-02-11T22:25:22.342Z,91.40
2019-02-11T22:27:50.614Z,91.30
2019-02-11T22:30:24.832Z,91.20
2019-02-11T22:32:54.345Z,91.20
2019-02-11T22:35:22.602Z,91.20
2019-02-11T22:37:51.347Z,91.40
2019-02-11T22:40:19.626Z,91.40
2019-02-11T22:42:47.910Z,91.40
2019-02-11T22:45:18.472Z,91.40
2019-02-11T22:48:06.131Z,91.40
2019-02-11T22:50:43.492Z,91.50
2019-02-11T22:53:11.707Z,91.70
2019-02-11T22:55:39.983Z,91.90
2019-02-11T22:58:08.241Z,91.90
2019-02-11T23:03:20.734Z,92.00
2019-02-11T23:05:49.009Z,92.00
2019-02-11T23:08:17.235Z,92.20
2019-02-11T23:10:45.516Z,92.20
2019-02-11T23:13:13.738Z,92.30
2019-02-11T23:15:42.012Z,92.40
2019-02-11T23:18:10.246Z,92.40
2019-02-11T23:20:38.521Z,92.50
2019-02-11T23:23:06.888Z,92.70
2019-02-11T23:25:35.158Z,92.80
2019-02-11T23:28:03.459Z,92.90
2019-02-11T23:30:31.701Z,93.10
2019-02-11T23:32:59.953Z,93.20
2019-02-11T23:35:28.167Z,93.30
2019-02-11T23:37:56.418Z,93.30
2019-02-11T23:40:24.674Z,93.50
2019-02-11T23:42:52.950Z,93.50
2019-02-11T23:45:21.227Z,93.50
2019-02-11T23:47:49.461Z,93.40
2019-02-11T23:50:17.722Z,93.60
2019-02-11T23:52:45.986Z,93.80
2019-02-11T23:55:14.222Z,93.90
2019-02-11T23:57:42.498Z,94.10
